EST,Max TemperatureF,Mean TemperatureF,Min TemperatureF,Max Dew PointF,MeanDew PointF,Min DewpointF,Max Humidity, Mean Humidity, Min Humidity, Max Sea Level PressureIn, Mean Sea Level PressureIn, Min Sea Level PressureIn, Max VisibilityMiles, Mean VisibilityMiles, Min VisibilityMiles, Max Wind SpeedMPH, Mean Wind SpeedMPH, Max Gust SpeedMPH,PrecipitationIn, CloudCover, Events, WindDirDegrees
2014-1-1,16,14,11,12,6,3,88,78,67,30.40,30.32,30.27,10,4,0,14,9,19,0.04,8,Snow,59
2014-1-2,15,7,-2,7,2,-7,83,71,58,30.40,30.28,30.21,10,10,7,17,9,24,T,6,Snow,38
2014-1-3,16,5,-7,7,-1,-10,87,72,57,30.45,30.32,30.02,10,10,10,23,12,33,0.00,3,,175
2014-1-4,32,24,16,30,25,7,92,77,61,30.00,29.91,29.83,10,3,0,32,15,40,0.11,7,Fog-Snow,222
2014-1-5,30,24,17,28,21,13,92,85,77,30.06,29.94,29.82,9,2,0,16,9,24,0.22,8,Fog-Snow,360
2014-1-6,17,8,-1,11,-3,-10,88,78,67,30.13,29.99,29.83,10,1,0,25,16,35,0.03,8,Fog-Snow,281
2014-1-7,12,6,0,4,-1,-8,87,80,72,30.31,30.15,30.06,10,2,0,24,17,32,T,8,Fog-Snow,259
2014-1-8,19,13,6,12,7,3,88,78,67,30.53,30.37,30.26,10,6,2,20,7,26,T,8,Snow,213
2014-1-9,24,18,11,20,12,7,92,80,67,30.57,30.44,30.24,10,8,4,13,8,16,T,7,Snow,123
2014-1-10,41,33,24,41,32,21,100,92,84,30.22,29.90,29.56,8,4,1,21,11,25,0.81,8,Rain,155
2014-1-11,43,38,33,42,34,27,100,88,75,29.72,29.47,29.38,10,8,0,21,13,27,0.12,8,Fog-Rain-Snow,259
2014-1-12,44,38,31,29,27,25,85,70,54,29.90,29.77,29.66,10,10,8,24,15,33,0.00,4,,213
2014-1-13,44,36,28,34,32,25,85,69,53,29.73,29.62,29.54,10,10,9,29,14,38,T,3,Rain,233
2014-1-14,36,30,23,31,24,20,96,76,56,29.78,29.68,29.60,10,6,0,36,16,47,0.01,6,Fog-Snow,219
2014-1-15,29,24,18,25,19,12,92,79,65,30.03,29.87,29.64,10,4,0,35,14,47,0.05,8,Fog-Snow,289
2014-1-16,33,25,17,31,22,11,92,83,73,29.90,29.60,29.52,10,5,1,23,15,29,0.07,8,Snow,182
2014-1-17,30,24,17,27,18,13,92,82,71,29.94,29.78,29.58,10,8,2,21,11,28,0.01,8,Snow,255
2014-1-18,26,17,7,25,14,6,96,79,62,29.91,29.86,29.83,10,4,0,20,7,24,0.08,7,Fog-Snow,185
2014-1-19,37,26,14,31,23,13,88,80,72,29.82,29.63,29.49,10,8,2,32,18,42,T,7,,232
2014-1-20,36,24,11,29,18,2,82,75,67,30.12,29.83,29.51,10,8,2,16,6,22,0.01,8,Snow,353
2014-1-21,13,9,5,4,-1,-4,73,61,48,30.29,30.23,30.14,10,10,9,12,5,15,T,5,,75
2014-1-22,14,12,9,10,6,3,92,80,67,30.19,29.96,29.85,10,3,0,21,11,26,0.08,8,Fog-Snow,196
2014-1-23,17,7,-3,10,5,-7,91,67,43,30.52,30.24,29.98,10,4,0,16,6,22,0.10,6,Fog-Snow,314
2014-1-24,26,13,0,24,8,-4,88,76,64,30.46,29.98,29.46,10,2,0,39,25,50,0.19,8,Fog-Snow,218
2014-1-25,31,21,11,30,12,2,92,77,61,29.81,29.55,29.31,10,2,0,35,16,45,0.17,8,Fog-Snow,306
2014-1-26,27,18,8,24,11,3,84,77,70,29.78,29.49,29.32,10,3,0,22,12,31,0.10,8,Fog-Snow,214
2014-1-27,16,9,2,11,0,-6,88,78,67,30.34,30.06,29.53,7,1,0,28,14,39,0.02,8,Fog-Snow,293
2014-1-28,9,7,5,4,2,-1,83,78,73,30.36,30.27,30.15,6,2,0,26,16,32,0.01,8,Fog-Snow,260
2014-1-29,19,14,9,8,4,1,73,64,54,30.18,30.13,30.07,10,9,0,26,17,32,0.05,4,Snow,248
2014-1-30,33,25,17,29,19,5,92,73,53,30.05,29.81,29.69,10,6,0,32,21,44,0.01,6,Fog-Snow,208
2014-1-31,33,26,19,28,19,15,84,76,68,30.16,30.03,29.81,10,10,9,22,6,27,0.00,6,,294